createdAt,value
2023-05-05T00:01:24.298Z,141.30
2023-05-05T00:03:50.851Z,135.47
2023-05-05T00:06:17.400Z,138.77
2023-05-05T00:08:43.879Z,141.73
2023-05-05T00:11:10.351Z,142.50
2023-05-05T00:13:36.846Z,136.33
2023-05-05T00:16:03.965Z,138.37
2023-05-05T00:18:30.422Z,141.80
2023-05-05T00:20:57.035Z,143.20
2023-05-05T00:23:23.478Z,141.90
2023-05-05T00:25:49.971Z,137.67
2023-05-05T00:28:16.445Z,143.47
2023-05-05T00:30:42.936Z,147.57
2023-05-05T00:33:09.581Z,141.73
2023-05-05T00:35:36.071Z,146.43
2023-05-05T00:38:02.995Z,144.87
2023-05-05T00:40:29.573Z,142.50
2023-05-05T00:42:55.991Z,146.40
2023-05-05T00:45:22.661Z,145.57
2023-05-05T00:47:51.566Z,147.00
2023-05-05T00:50:29.062Z,141.27
2023-05-05T00:53:06.740Z,147.73
2023-05-05T00:55:34.505Z,141.23
2023-05-05T00:58:03.035Z,141.73
2023-05-05T01:00:30.913Z,152.97
2023-05-05T01:02:57.514Z,148.60
2023-05-05T01:05:24.789Z,152.33
2023-05-05T01:08:19.492Z,148.43
2023-05-05T01:10:50.285Z,151.47
2023-05-05T01:13:26.623Z,146.43
2023-05-05T01:16:01.611Z,151.63
2023-05-05T01:18:40.580Z,146.40
2023-05-05T01:21:27.064Z,152.70
2023-05-05T01:24:07.942Z,144.77
2023-05-05T01:27:12.049Z,155.73
2023-05-05T01:30:05.688Z,148.63
2023-05-05T01:32:35.762Z,151.03
2023-05-05T01:35:06.329Z,154.80
2023-05-05T01:37:59.107Z,157.30
2023-05-05T01:40:28.289Z,157.77
2023-05-05T01:42:55.575Z,155.30
2023-05-05T01:45:25.365Z,167.23
2023-05-05T01:47:52.789Z,165.10
2023-05-05T01:50:19.596Z,166.03
2023-05-05T01:52:46.743Z,169.87
2023-05-05T01:55:14.897Z,164.10
2023-05-05T01:57:42.565Z,169.80
2023-05-05T02:00:09.870Z,176.53
2023-05-05T02:02:38.922Z,165.87
2023-05-05T02:05:06.677Z,164.97
2023-05-05T02:07:33.874Z,172.00
2023-05-05T02:10:02.778Z,167.60
2023-05-05T02:12:30.312Z,174.60
2023-05-05T02:14:59.249Z,169.63
2023-05-05T02:17:26.403Z,175.80
2023-05-05T02:19:53.233Z,172.80
2023-05-05T02:22:19.779Z,186.17
2023-05-05T02:24:46.340Z,175.30
2023-05-05T02:27:16.463Z,179.37
2023-05-05T02:29:48.016Z,188.80
2023-05-05T02:32:18.638Z,185.00
2023-05-05T02:34:46.455Z,192.57
2023-05-05T02:37:16.030Z,195.47
2023-05-05T02:39:58.658Z,184.03
2023-05-05T02:42:29.035Z,184.23
2023-05-05T02:44:58.829Z,175.97
2023-05-05T02:47:35.667Z,183.57
2023-05-05T02:50:03.411Z,180.23
2023-05-05T02:52:30.070Z,191.73
2023-05-05T02:54:56.571Z,189.67
2023-05-05T02:57:31.153Z,178.30
2023-05-05T03:00:05.985Z,183.07
2023-05-05T03:02:55.888Z,186.50
2023-05-05T03:05:23.952Z,174.27
2023-05-05T03:08:03.403Z,183.47
2023-05-05T03:10:31.459Z,184.30
2023-05-05T03:13:00.125Z,183.57
2023-05-05T03:15:36.693Z,177.07
2023-05-05T03:18:04.076Z,164.87
2023-05-05T03:20:30.720Z,171.10
2023-05-05T03:22:57.263Z,169.00
2023-05-05T03:25:41.443Z,174.83
2023-05-05T03:28:07.934Z,167.03
2023-05-05T03:30:34.404Z,163.20
2023-05-05T03:33:01.093Z,165.47
2023-05-05T03:35:27.971Z,157.10
2023-05-05T03:37:55.687Z,155.77
2023-05-05T03:40:36.380Z,150.93
2023-05-05T03:43:09.872Z,147.83
2023-05-05T03:45:36.339Z,146.50
2023-05-05T03:48:03.195Z,142.50
2023-05-05T03:50:29.668Z,147.73
2023-05-05T03:52:56.252Z,142.73
2023-05-05T03:55:22.792Z,140.63
2023-05-05T03:57:49.254Z,140.10
2023-05-05T04:00:16.059Z,131.30
2023-05-05T04:02:43.671Z,133.23
2023-05-05T04:05:10.297Z,130.23
2023-05-05T04:07:36.754Z,129.23
2023-05-05T04:10:03.313Z,126.03
2023-05-05T04:12:29.885Z,126.63
2023-05-05T04:14:56.367Z,123.50
2023-05-05T04:17:22.823Z,122.50
2023-05-05T04:19:49.392Z,120.47
2023-05-05T04:22:15.907Z,125.97
2023-05-05T04:24:42.374Z,114.63
2023-05-05T04:27:08.827Z,110.57
2023-05-05T04:29:35.313Z,108.17
2023-05-05T04:32:01.760Z,105.37
2023-05-05T04:34:28.283Z,104.53
2023-05-05T04:36:54.745Z,102.50
2023-05-05T04:39:21.595Z,102.70
2023-05-05T04:41:48.054Z,107.40
2023-05-05T04:44:14.542Z,98.37
2023-05-05T04:46:41.479Z,95.57
2023-05-05T04:49:09.190Z,92.27
2023-05-05T04:51:35.661Z,85.93
2023-05-05T04:54:02.176Z,90.97
2023-05-05T04:56:32.010Z,85.63
2023-05-05T04:58:58.615Z,88.30
2023-05-05T05:01:25.263Z,96.40
2023-05-05T05:03:51.780Z,85.63
2023-05-05T05:06:18.335Z,76.83
2023-05-05T05:08:44.829Z,81.30
2023-05-05T05:11:11.280Z,77.23
2023-05-05T05:13:37.795Z,81.17
2023-05-05T05:16:04.419Z,70.47
2023-05-05T05:18:30.894Z,70.63
2023-05-05T05:20:57.314Z,69.03
2023-05-05T05:23:23.852Z,65.30
2023-05-05T05:25:50.753Z,58.87
2023-05-05T05:28:17.210Z,58.40
2023-05-05T05:30:43.644Z,56.83
2023-05-05T05:33:10.790Z,56.20
2023-05-05T05:35:37.433Z,56.77
2023-05-05T05:38:04.006Z,54.53
2023-05-05T05:40:31.517Z,52.90
2023-05-05T05:42:58.078Z,54.20
2023-05-05T05:45:24.547Z,51.77
2023-05-05T05:47:51.111Z,51.17
2023-05-05T05:50:17.719Z,49.13
2023-05-05T05:52:44.187Z,49.57
2023-05-05T05:55:10.694Z,48.63
2023-05-05T05:57:37.144Z,47.47
2023-05-05T06:00:04.013Z,44.53
2023-05-05T06:02:30.662Z,42.37
2023-05-05T06:04:57.180Z,42.23
2023-05-05T06:07:23.677Z,38.03
2023-05-05T06:09:50.613Z,37.90
2023-05-05T06:12:17.118Z,36.00
2023-05-05T06:14:43.729Z,58.17
2023-05-05T06:17:10.270Z,37.40
2023-05-05T06:19:39.760Z,34.30
2023-05-05T06:22:06.362Z,39.83
2023-05-05T06:24:32.931Z,34.23
2023-05-05T06:26:59.431Z,35.13
2023-05-05T06:29:26.299Z,33.97
2023-05-05T06:31:52.830Z,34.13
2023-05-05T06:34:19.399Z,32.97
2023-05-05T06:36:46.041Z,31.73
2023-05-05T06:39:15.298Z,32.97
2023-05-05T06:41:42.471Z,48.30
2023-05-05T06:44:08.950Z,30.77
2023-05-05T06:46:35.574Z,29.80
2023-05-05T06:49:02.106Z,34.80
2023-05-05T06:51:28.553Z,29.80
2023-05-05T06:53:55.019Z,32.33
2023-05-05T06:56:21.594Z,76.00
2023-05-05T06:58:48.147Z,29.47
2023-05-05T07:01:14.663Z,33.40
2023-05-05T07:03:41.209Z,33.50
2023-05-05T07:06:07.838Z,35.53
2023-05-05T07:08:34.347Z,28.83
2023-05-05T07:11:01.201Z,31.53
2023-05-05T07:13:27.747Z,33.00
2023-05-05T07:15:54.273Z,29.67
2023-05-05T07:18:21.146Z,32.00
2023-05-05T07:20:49.154Z,30.10
2023-05-05T07:23:15.607Z,43.93
2023-05-05T07:25:42.198Z,31.00
2023-05-05T07:28:08.741Z,35.43
2023-05-05T07:30:35.259Z,33.17
2023-05-05T07:33:01.813Z,27.50
2023-05-05T07:35:28.541Z,43.10
2023-05-05T07:37:54.985Z,32.43
2023-05-05T07:40:21.668Z,30.83
2023-05-05T07:42:48.208Z,31.00
2023-05-05T07:45:14.665Z,30.87
2023-05-05T07:47:41.191Z,38.97
2023-05-05T07:50:08.612Z,33.80
2023-05-05T07:52:46.820Z,28.40
2023-05-05T07:55:18.163Z,32.83
2023-05-05T07:57:44.628Z,35.37
2023-05-05T08:00:13.288Z,35.10
2023-05-05T08:02:40.325Z,32.70
2023-05-05T08:05:07.520Z,33.47
2023-05-05T08:07:34.320Z,44.60
2023-05-05T08:10:00.828Z,36.50
2023-05-05T08:12:27.299Z,35.63
2023-05-05T08:14:53.782Z,40.67
2023-05-05T08:17:20.336Z,39.33
2023-05-05T08:19:46.881Z,41.63
2023-05-05T08:22:13.398Z,31.60
2023-05-05T08:24:39.830Z,31.53
2023-05-05T08:27:06.356Z,40.23
2023-05-05T08:29:32.814Z,37.10
2023-05-05T08:31:59.303Z,37.23
2023-05-05T08:34:25.841Z,32.30
2023-05-05T08:36:52.288Z,48.30
2023-05-05T08:39:18.771Z,31.00
2023-05-05T08:41:45.271Z,36.53
2023-05-05T08:44:11.965Z,30.47
2023-05-05T08:46:39.170Z,36.80
2023-05-05T08:49:06.195Z,40.07
2023-05-05T08:51:40.415Z,37.50
2023-05-05T08:54:11.615Z,33.63
2023-05-05T08:56:41.878Z,41.77
2023-05-05T08:59:09.142Z,32.43
2023-05-05T09:01:36.305Z,30.57
2023-05-05T09:04:04.390Z,34.03
2023-05-05T09:06:33.771Z,29.20
2023-05-05T09:09:00.987Z,28.53
2023-05-05T09:11:28.105Z,35.70
2023-05-05T09:13:56.125Z,38.23
2023-05-05T09:16:23.076Z,28.77
2023-05-05T09:18:49.650Z,28.80
2023-05-05T09:21:25.109Z,28.87
2023-05-05T09:24:08.173Z,32.60
2023-05-05T09:26:59.186Z,27.50
2023-05-05T09:29:26.578Z,41.83
2023-05-05T09:32:08.984Z,24.40
2023-05-05T09:34:36.206Z,28.73
2023-05-05T09:37:03.435Z,37.03
2023-05-05T09:39:30.043Z,28.10
2023-05-05T09:41:56.557Z,40.00
2023-05-05T09:44:36.729Z,52.37
2023-05-05T09:47:26.112Z,43.77
2023-05-05T09:50:01.901Z,29.93
2023-05-05T09:52:32.083Z,28.20
2023-05-05T09:54:58.576Z,30.00
2023-05-05T09:57:27.294Z,40.30
2023-05-05T09:59:58.927Z,30.53
2023-05-05T10:02:33.441Z,34.33
2023-05-05T10:05:06.665Z,28.70
2023-05-05T10:07:33.242Z,33.77
2023-05-05T10:09:59.689Z,32.73
2023-05-05T10:12:26.976Z,50.63
2023-05-05T10:14:55.892Z,41.03
2023-05-05T10:17:23.350Z,52.43
2023-05-05T10:19:52.699Z,31.93
2023-05-05T10:22:23.442Z,55.63
2023-05-05T10:24:57.912Z,26.20
2023-05-05T10:27:26.079Z,32.97
2023-05-05T10:29:57.808Z,26.93
2023-05-05T10:35:03.249Z,30.60
2023-05-05T10:37:30.928Z,29.07
2023-05-05T10:39:57.827Z,34.40
2023-05-05T10:42:24.371Z,29.67
2023-05-05T10:44:51.410Z,49.87
2023-05-05T10:47:19.300Z,32.90
2023-05-05T10:49:52.943Z,38.50
2023-05-05T10:52:37.319Z,32.53
2023-05-05T10:55:14.357Z,31.37
2023-05-05T10:57:43.092Z,36.97
2023-05-05T11:00:10.920Z,38.10
2023-05-05T11:02:37.550Z,42.97
2023-05-05T11:05:18.086Z,37.20
2023-05-05T11:07:46.491Z,38.10
2023-05-05T11:10:15.032Z,37.63
2023-05-05T11:12:57.874Z,35.33
2023-05-05T11:15:27.930Z,50.90
2023-05-05T11:17:58.499Z,35.60
2023-05-05T11:20:39.436Z,54.33
2023-05-05T11:23:05.928Z,36.13
2023-05-05T11:25:39.018Z,39.80
2023-05-05T11:28:16.338Z,31.00
2023-05-05T11:30:55.184Z,53.83
2023-05-05T11:33:32.852Z,42.43
2023-05-05T11:36:12.283Z,38.93
2023-05-05T11:39:11.869Z,41.47
2023-05-05T11:42:08.022Z,32.73
2023-05-05T11:44:36.221Z,41.03
2023-05-05T11:47:05.893Z,34.10
2023-05-05T11:49:39.389Z,45.07
2023-05-05T11:52:10.463Z,37.03
2023-05-05T11:54:40.469Z,34.60
2023-05-05T11:57:10.302Z,39.13
2023-05-05T11:59:50.230Z,62.00
2023-05-05T12:02:17.898Z,41.33
2023-05-05T12:04:44.534Z,51.83
2023-05-05T12:07:21.822Z,86.40
2023-05-05T12:09:49.083Z,40.67
2023-05-05T12:12:16.508Z,43.60
2023-05-05T12:14:53.253Z,33.10
2023-05-05T12:17:20.809Z,34.40
2023-05-05T12:19:50.346Z,32.20
2023-05-05T12:22:26.945Z,32.73
2023-05-05T12:24:57.732Z,48.23
2023-05-05T12:27:25.212Z,41.30
2023-05-05T12:29:51.927Z,35.37
2023-05-05T12:32:26.079Z,47.83
2023-05-05T12:34:54.411Z,42.63
2023-05-05T12:37:22.070Z,30.37
2023-05-05T12:39:52.283Z,39.17
2023-05-05T12:42:19.204Z,41.30
2023-05-05T12:44:46.717Z,41.60
2023-05-05T12:47:14.162Z,34.43
2023-05-05T12:49:48.670Z,46.90
2023-05-05T12:52:16.279Z,29.27
2023-05-05T12:54:54.835Z,48.93
2023-05-05T12:57:22.374Z,38.03
2023-05-05T12:59:49.414Z,31.00
2023-05-05T13:02:16.515Z,27.43
2023-05-05T13:04:53.534Z,34.57
2023-05-05T13:07:21.720Z,70.10
2023-05-05T13:09:50.963Z,40.07
2023-05-05T13:12:17.976Z,41.10
2023-05-05T13:14:44.734Z,33.13
2023-05-05T13:17:11.839Z,50.90
2023-05-05T13:19:42.785Z,28.23
2023-05-05T13:22:13.178Z,27.83
2023-05-05T13:24:51.003Z,29.13
2023-05-05T13:27:18.601Z,30.57
2023-05-05T13:29:45.127Z,40.47
2023-05-05T13:32:11.713Z,31.97
2023-05-05T13:34:39.256Z,32.10
2023-05-05T13:37:06.129Z,33.40
2023-05-05T13:39:32.761Z,58.77
2023-05-05T13:41:59.274Z,41.70
2023-05-05T13:44:25.749Z,37.30
2023-05-05T13:46:52.388Z,35.30
2023-05-05T13:49:20.028Z,37.53
2023-05-05T13:51:47.182Z,59.07
2023-05-05T13:54:13.962Z,46.17
2023-05-05T13:56:40.474Z,35.40
2023-05-05T13:59:06.964Z,37.87
2023-05-05T14:01:33.487Z,38.60
2023-05-05T14:04:01.449Z,48.03
2023-05-05T14:06:29.393Z,34.47
2023-05-05T14:08:55.940Z,30.60
2023-05-05T14:11:22.926Z,54.37
2023-05-05T14:13:49.746Z,37.40
2023-05-05T14:16:16.618Z,56.73
2023-05-05T14:18:43.188Z,82.13
2023-05-05T14:21:09.785Z,38.30
2023-05-05T14:23:36.307Z,31.23
2023-05-05T14:26:02.870Z,32.67
2023-05-05T14:28:29.325Z,31.67
2023-05-05T14:30:56.408Z,30.83
2023-05-05T14:33:23.014Z,30.90
2023-05-05T14:35:51.671Z,38.70
2023-05-05T14:38:25.356Z,45.73
2023-05-05T14:40:51.908Z,30.57
2023-05-05T14:43:18.412Z,81.17
2023-05-05T14:45:44.956Z,33.33
2023-05-05T14:48:11.541Z,33.80
2023-05-05T14:50:39.925Z,38.37
2023-05-05T14:53:06.422Z,35.60
2023-05-05T14:55:33.043Z,30.43
2023-05-05T14:57:59.549Z,43.57
2023-05-05T15:00:26.900Z,28.53
2023-05-05T15:02:53.623Z,35.03
2023-05-05T15:05:20.274Z,29.67
2023-05-05T15:07:46.781Z,30.27
2023-05-05T15:10:13.218Z,36.00
2023-05-05T15:12:39.711Z,30.17
2023-05-05T15:15:08.667Z,31.07
2023-05-05T15:17:37.471Z,27.73
2023-05-05T15:20:06.213Z,29.60
2023-05-05T15:22:43.196Z,59.80
2023-05-05T15:25:12.481Z,29.40
2023-05-05T15:27:44.060Z,28.17
2023-05-05T15:30:21.808Z,27.87
2023-05-05T15:32:48.337Z,27.17
2023-05-05T15:35:14.831Z,29.03
2023-05-05T15:37:42.873Z,56.97
2023-05-05T15:40:09.886Z,28.27
2023-05-05T15:42:36.579Z,29.57
2023-05-05T15:45:03.449Z,28.47
2023-05-05T15:47:29.924Z,26.37
2023-05-05T15:49:56.574Z,31.00
2023-05-05T15:52:23.038Z,28.00
2023-05-05T15:54:49.543Z,24.77
2023-05-05T15:57:16.459Z,27.10
2023-05-05T15:59:43.012Z,30.23
2023-05-05T16:02:09.482Z,31.33
2023-05-05T16:04:35.951Z,40.27
2023-05-05T16:07:03.383Z,30.73
2023-05-05T16:09:29.902Z,39.57
2023-05-05T16:11:57.028Z,31.13
2023-05-05T16:14:24.102Z,29.13
2023-05-05T16:16:50.693Z,25.50
2023-05-05T16:19:18.134Z,30.77
2023-05-05T16:21:44.874Z,28.70
2023-05-05T16:24:16.030Z,28.03
2023-05-05T16:26:43.554Z,27.30
2023-05-05T16:29:10.532Z,26.53
2023-05-05T16:31:37.084Z,28.30
2023-05-05T16:34:03.872Z,38.60
2023-05-05T16:36:30.357Z,27.50
2023-05-05T16:38:56.855Z,26.87
2023-05-05T16:41:23.802Z,28.50
2023-05-05T16:43:50.433Z,28.43
2023-05-05T16:46:17.022Z,29.57
2023-05-05T16:48:43.649Z,29.87
2023-05-05T16:51:10.140Z,27.53
2023-05-05T16:53:36.638Z,34.50
2023-05-05T16:56:03.324Z,28.10
2023-05-05T16:58:29.810Z,29.50
2023-05-05T17:00:56.258Z,26.30
2023-05-05T17:03:22.791Z,29.07
2023-05-05T17:05:50.470Z,31.20
2023-05-05T17:08:17.254Z,29.37
2023-05-05T17:10:45.328Z,27.60
2023-05-05T17:13:12.957Z,26.17
2023-05-05T17:15:39.596Z,29.37
2023-05-05T17:18:06.804Z,26.93
2023-05-05T17:20:34.413Z,28.30
2023-05-05T17:23:02.204Z,28.10
2023-05-05T17:25:28.812Z,28.20
2023-05-05T17:27:56.182Z,28.10
2023-05-05T17:30:23.410Z,28.03
2023-05-05T17:32:50.040Z,34.27
2023-05-05T17:35:16.650Z,31.33
2023-05-05T17:37:43.197Z,35.27
2023-05-05T17:40:09.904Z,76.27
2023-05-05T17:42:36.432Z,39.87
2023-05-05T17:45:03.362Z,51.60
2023-05-05T17:47:29.999Z,41.13
2023-05-05T17:49:56.914Z,47.90
2023-05-05T17:52:23.850Z,43.73
2023-05-05T17:54:50.702Z,44.67
2023-05-05T17:57:18.373Z,47.20
2023-05-05T17:59:45.078Z,52.97
2023-05-05T18:02:11.560Z,50.63
2023-05-05T18:04:38.030Z,53.80
2023-05-05T18:07:04.880Z,45.47
2023-05-05T18:09:31.350Z,47.63
2023-05-05T18:11:57.822Z,44.93
2023-05-05T18:14:24.598Z,43.10
2023-05-05T18:16:52.403Z,47.77
2023-05-05T18:19:23.127Z,46.27
2023-05-05T18:21:54.464Z,39.07
2023-05-05T18:24:20.969Z,36.80
2023-05-05T18:26:50.196Z,36.17
2023-05-05T18:29:17.881Z,36.00
2023-05-05T18:31:46.094Z,32.67
2023-05-05T18:34:12.594Z,29.83
2023-05-05T18:36:39.267Z,26.70
2023-05-05T18:39:05.772Z,24.23
2023-05-05T18:41:35.711Z,23.10
2023-05-05T18:44:04.611Z,24.17
2023-05-05T18:46:31.266Z,22.47
2023-05-05T18:48:57.823Z,17.67
2023-05-05T18:51:24.954Z,16.90
2023-05-05T18:53:51.424Z,16.43
2023-05-05T18:56:18.569Z,19.80
2023-05-05T18:58:45.044Z,29.37
2023-05-05T19:01:11.524Z,28.40
2023-05-05T19:03:38.124Z,42.97
2023-05-05T19:06:07.850Z,44.07
2023-05-05T19:08:34.462Z,53.77
2023-05-05T19:11:00.974Z,61.37
2023-05-05T19:13:28.171Z,73.93
2023-05-05T19:15:57.071Z,100.27
2023-05-05T19:18:24.216Z,112.37
2023-05-05T19:20:50.734Z,128.73
2023-05-05T19:23:17.193Z,133.80
2023-05-05T19:25:43.896Z,144.00
2023-05-05T19:28:13.670Z,164.00
2023-05-05T19:30:40.117Z,166.37
2023-05-05T19:33:06.703Z,182.13
2023-05-05T19:35:33.220Z,189.33
2023-05-05T19:37:59.785Z,225.87
2023-05-05T19:40:26.252Z,234.20
2023-05-05T19:42:52.811Z,224.00
2023-05-05T19:45:19.345Z,267.33
2023-05-05T19:47:46.235Z,271.63
2023-05-05T19:50:12.841Z,269.60
2023-05-05T19:52:41.385Z,273.47
2023-05-05T19:55:10.351Z,276.07
2023-05-05T19:57:36.937Z,298.17
2023-05-05T20:00:03.761Z,300.23
2023-05-05T20:02:30.525Z,309.47
2023-05-05T20:04:57.984Z,297.33
2023-05-05T20:07:24.470Z,304.50
2023-05-05T20:09:50.942Z,284.77
2023-05-05T20:12:19.532Z,295.23
2023-05-05T20:14:46.074Z,263.60
2023-05-05T20:17:38.952Z,275.20
2023-05-05T20:20:06.153Z,219.47
2023-05-05T20:22:32.731Z,213.97
2023-05-05T20:24:59.256Z,212.90
2023-05-05T20:27:26.726Z,219.50
2023-05-05T20:29:55.094Z,187.43
2023-05-05T20:32:21.594Z,179.10
2023-05-05T20:34:48.199Z,195.43
2023-05-05T20:37:14.721Z,171.80
2023-05-05T20:39:42.312Z,153.80
2023-05-05T20:42:08.745Z,148.13
2023-05-05T20:45:00.860Z,159.40
2023-05-05T20:47:27.345Z,141.43
2023-05-05T20:49:54.279Z,148.93
2023-05-05T20:52:20.852Z,119.57
2023-05-05T20:54:47.337Z,131.30
2023-05-05T20:57:13.797Z,154.37
2023-05-05T20:59:40.266Z,178.60
2023-05-05T21:02:07.420Z,180.13
2023-05-05T21:04:33.954Z,168.87
2023-05-05T21:07:00.594Z,173.67
2023-05-05T21:09:52.311Z,139.40
2023-05-05T21:12:21.785Z,131.57
2023-05-05T21:14:48.233Z,120.73
2023-05-05T21:17:14.678Z,104.07
2023-05-05T21:19:41.242Z,90.63
2023-05-05T21:22:09.672Z,87.10
2023-05-05T21:24:38.266Z,84.77
2023-05-05T21:27:04.797Z,61.93
2023-05-05T21:29:37.415Z,70.77
2023-05-05T21:32:05.127Z,63.27
2023-05-05T21:34:31.622Z,53.07
2023-05-05T21:36:58.155Z,44.87
2023-05-05T21:39:24.828Z,43.23
2023-05-05T21:41:51.612Z,39.03
2023-05-05T21:44:18.069Z,29.03
2023-05-05T21:46:44.690Z,29.70
2023-05-05T21:49:15.606Z,20.63
2023-05-05T21:51:42.662Z,17.43
2023-05-05T21:54:09.255Z,15.70
2023-05-05T21:56:36.915Z,15.50
2023-05-05T21:59:04.745Z,15.07
2023-05-05T22:01:31.852Z,14.50
2023-05-05T22:03:58.761Z,15.13
2023-05-05T22:06:25.358Z,17.57
2023-05-05T22:08:51.813Z,17.37
2023-05-05T22:11:18.807Z,24.77
2023-05-05T22:13:46.358Z,35.23
2023-05-05T22:16:12.905Z,35.93
2023-05-05T22:18:39.403Z,46.87
2023-05-05T22:21:06.133Z,56.20
2023-05-05T22:23:32.653Z,67.83
2023-05-05T22:25:59.177Z,94.80
2023-05-05T22:28:27.017Z,106.63
2023-05-05T22:30:54.024Z,128.80
2023-05-05T22:33:20.509Z,140.27
2023-05-05T22:35:47.060Z,144.70
2023-05-05T22:38:13.606Z,166.60
2023-05-05T22:40:40.195Z,172.80
2023-05-05T22:43:06.737Z,204.43
2023-05-05T22:45:33.286Z,222.70
2023-05-05T22:47:59.850Z,231.57
2023-05-05T22:50:26.354Z,240.10
2023-05-05T22:52:52.830Z,258.83
2023-05-05T22:55:20.308Z,260.77
2023-05-05T22:57:47.383Z,267.97
2023-05-05T23:00:14.604Z,272.10
2023-05-05T23:02:41.595Z,287.70
2023-05-05T23:05:08.681Z,292.43
2023-05-05T23:07:35.402Z,288.53
2023-05-05T23:10:01.918Z,298.80
2023-05-05T23:12:28.538Z,292.87
2023-05-05T23:14:55.038Z,295.97
2023-05-05T23:17:21.523Z,301.77
2023-05-05T23:19:48.501Z,296.77
2023-05-05T23:22:15.085Z,289.60
2023-05-05T23:24:41.729Z,289.63
2023-05-05T23:27:08.216Z,285.87
2023-05-05T23:29:37.671Z,278.37
2023-05-05T23:32:04.884Z,278.37
2023-05-05T23:34:41.305Z,272.57
2023-05-05T23:37:08.592Z,256.40
2023-05-05T23:39:35.247Z,257.37
2023-05-05T23:42:01.814Z,256.97
2023-05-05T23:44:28.418Z,257.37
2023-05-05T23:46:54.951Z,250.17
2023-05-05T23:49:21.523Z,249.87
2023-05-05T23:51:48.029Z,236.27
2023-05-05T23:54:14.522Z,227.63
2023-05-05T23:56:41.178Z,224.73
2023-05-05T23:59:07.869Z,229.67
